createdAt,value
2017-02-10T00:00:26.199Z,-3.46
2017-02-10T00:01:06.654Z,-3.48
2017-02-10T00:01:47.171Z,-3.45
2017-02-10T00:02:27.632Z,-3.49
2017-02-10T00:03:08.068Z,-3.54
2017-02-10T00:03:48.544Z,-3.45
2017-02-10T00:04:29.049Z,-3.54
2017-02-10T00:05:09.531Z,-3.49
2017-02-10T00:05:50.017Z,-3.46
2017-02-10T00:06:30.520Z,-3.46
2017-02-10T00:07:10.954Z,-3.48
2017-02-10T00:07:51.450Z,-3.48
2017-02-10T00:08:31.915Z,-3.52
2017-02-10T00:09:12.363Z,-3.52
2017-02-10T00:09:52.836Z,-3.52
2017-02-10T00:10:33.320Z,-3.54
2017-02-10T00:11:13.783Z,-3.48
2017-02-10T00:11:54.270Z,-3.48
2017-02-10T00:12:34.736Z,-3.48
2017-02-10T00:13:15.187Z,-3.51
2017-02-10T00:13:55.696Z,-3.54
2017-02-10T00:14:36.137Z,-3.41
2017-02-10T00:15:16.631Z,-3.48
2017-02-10T00:15:57.136Z,-3.44
2017-02-10T00:16:37.609Z,-3.35
2017-02-10T00:17:18.094Z,-3.46
2017-02-10T00:17:58.533Z,-3.35
2017-02-10T00:18:39.009Z,-3.46
2017-02-10T00:19:19.502Z,-3.46
2017-02-10T00:19:59.951Z,-3.4
2017-02-10T00:20:40.444Z,-3.33
2017-02-10T00:21:20.914Z,-3.38
2017-02-10T00:22:01.427Z,-3.33
2017-02-10T00:22:41.899Z,-3.3
2017-02-10T00:23:22.394Z,-3.31
2017-02-10T00:24:02.907Z,-3.3
2017-02-10T00:24:43.407Z,-3.22
2017-02-10T00:25:23.852Z,-3.28
2017-02-10T00:26:04.326Z,-3.23
2017-02-10T00:26:44.819Z,-3.16
2017-02-10T00:27:25.268Z,-3.19
2017-02-10T00:28:05.739Z,-3.2
2017-02-10T00:28:46.239Z,-3.17
2017-02-10T00:29:26.694Z,-3.2
2017-02-10T00:30:07.223Z,-3.16
2017-02-10T00:30:47.729Z,-3.12
2017-02-10T00:31:28.221Z,-3.13
2017-02-10T00:32:08.682Z,-3.1
2017-02-10T00:32:49.133Z,-3.13
2017-02-10T00:33:29.631Z,-3.09
2017-02-10T00:34:10.181Z,-3.04
2017-02-10T00:34:50.692Z,-3.02
2017-02-10T00:35:31.145Z,-3.01
2017-02-10T00:36:11.595Z,-3.01
2017-02-10T00:36:52.059Z,-2.99
2017-02-10T00:37:32.578Z,-3.02
2017-02-10T00:38:13.053Z,-2.99
2017-02-10T00:38:53.484Z,-2.98
2017-02-10T00:39:33.993Z,-2.99
2017-02-10T00:40:14.490Z,-2.98
2017-02-10T00:40:54.889Z,-2.92
2017-02-10T00:41:35.386Z,-2.89
2017-02-10T00:42:15.856Z,-2.86
2017-02-10T00:42:56.361Z,-2.8
2017-02-10T00:43:36.860Z,-2.88
2017-02-10T00:44:17.377Z,-2.77
2017-02-10T00:44:57.839Z,-2.77
2017-02-10T00:45:38.379Z,-2.8
2017-02-10T00:46:18.831Z,-2.8
2017-02-10T00:46:59.258Z,-2.78
2017-02-10T00:47:39.797Z,-2.8
2017-02-10T00:48:20.278Z,-2.74
2017-02-10T00:49:00.729Z,-2.76
2017-02-10T00:49:41.272Z,-2.73
2017-02-10T00:50:21.749Z,-2.76
2017-02-10T00:51:02.235Z,-2.65
2017-02-10T00:51:42.720Z,-2.66
2017-02-10T00:52:23.280Z,-2.73
2017-02-10T00:53:03.700Z,-2.69
2017-02-10T00:53:44.179Z,-2.59
2017-02-10T00:54:24.660Z,-2.63
2017-02-10T00:55:05.193Z,-2.7
2017-02-10T00:55:45.704Z,-2.56
2017-02-10T00:56:26.261Z,-2.65
2017-02-10T00:57:06.710Z,-2.55
2017-02-10T00:57:47.190Z,-2.6
2017-02-10T00:58:27.655Z,-2.66
2017-02-10T00:59:08.154Z,-2.6
2017-02-10T00:59:48.608Z,-2.6
2017-02-10T01:00:29.064Z,-2.48
2017-02-10T01:01:09.563Z,-2.5
2017-02-10T01:01:50.047Z,-2.53
2017-02-10T01:02:30.524Z,-2.53
2017-02-10T01:03:10.943Z,-2.45
2017-02-10T01:03:51.431Z,-2.47
2017-02-10T01:04:31.933Z,-2.48
2017-02-10T01:05:12.428Z,-2.48
2017-02-10T01:05:52.935Z,-2.42
2017-02-10T01:06:33.383Z,-2.48
2017-02-10T01:07:13.853Z,-2.35
2017-02-10T01:07:54.300Z,-2.38
2017-02-10T01:08:34.860Z,-2.4
2017-02-10T01:09:15.332Z,-2.38
2017-02-10T01:09:55.839Z,-2.35
2017-02-10T01:10:36.320Z,-2.4
2017-02-10T01:11:16.808Z,-2.32
2017-02-10T01:11:57.303Z,-2.34
2017-02-10T01:12:37.680Z,-2.22
2017-02-10T01:13:18.185Z,-2.32
2017-02-10T01:13:58.691Z,-2.23
2017-02-10T01:14:39.180Z,-2.28
2017-02-10T01:15:19.648Z,-2.32
2017-02-10T01:16:00.150Z,-2.28
2017-02-10T01:16:40.616Z,-2.22
2017-02-10T01:17:21.096Z,-2.22
2017-02-10T01:18:01.612Z,-2.21
2017-02-10T01:18:42.137Z,-2.25
2017-02-10T01:19:22.666Z,-2.25
2017-02-10T01:20:03.180Z,-2.12
2017-02-10T01:20:43.632Z,-2.18
2017-02-10T01:21:24.163Z,-2.18
2017-02-10T01:22:04.636Z,-2.13
2017-02-10T01:22:45.080Z,-2.15
2017-02-10T01:23:25.555Z,-2.21
2017-02-10T01:24:06.060Z,-2.12
2017-02-10T01:24:46.516Z,-2.08
2017-02-10T01:25:26.975Z,-2.15
2017-02-10T01:26:07.457Z,-2.12
2017-02-10T01:26:48.001Z,-2.02
2017-02-10T01:27:28.421Z,-2.12
2017-02-10T01:28:08.895Z,-2.16
2017-02-10T01:28:49.392Z,-2.13
2017-02-10T01:29:29.865Z,-2.1
2017-02-10T01:30:10.350Z,-2.08
2017-02-10T01:30:50.810Z,-2.08
2017-02-10T01:31:31.299Z,-2.02
2017-02-10T01:32:11.803Z,-2.08
2017-02-10T01:32:52.314Z,-2.07
2017-02-10T01:33:32.716Z,-2.02
2017-02-10T01:34:13.320Z,-2.04
2017-02-10T01:34:53.855Z,-2.07
2017-02-10T01:35:34.302Z,-2.04
2017-02-10T01:36:14.854Z,-2.01
2017-02-10T01:36:55.318Z,-2.02
2017-02-10T01:37:35.835Z,-2.04
2017-02-10T01:38:16.309Z,-2.04
2017-02-10T01:38:56.776Z,-2.02
2017-02-10T01:39:37.296Z,-2.1
2017-02-10T01:40:17.843Z,-2.05
2017-02-10T01:40:58.346Z,-2.02
2017-02-10T01:41:38.865Z,-2.07
2017-02-10T01:42:19.377Z,-2.08
2017-02-10T01:42:59.873Z,-2.05
2017-02-10T01:43:40.322Z,-2.07
2017-02-10T01:44:20.851Z,-2.02
2017-02-10T01:45:01.309Z,-2.01
2017-02-10T01:45:41.787Z,-2.01
2017-02-10T01:46:22.228Z,-2.04
2017-02-10T01:47:02.727Z,-2.01
2017-02-10T01:47:43.205Z,-2
2017-02-10T01:48:23.727Z,-2.04
2017-02-10T01:49:04.146Z,-2.07
2017-02-10T01:49:44.637Z,-2.02
2017-02-10T01:50:25.123Z,-2.05
2017-02-10T01:51:05.571Z,-2.02
2017-02-10T01:51:46.031Z,-2.07
2017-02-10T01:52:26.486Z,-2.04
2017-02-10T01:53:06.979Z,-2.04
2017-02-10T01:53:47.471Z,-2.08
2017-02-10T01:54:27.885Z,-2.04
2017-02-10T01:55:08.440Z,-2.08
2017-02-10T01:55:48.921Z,-2.1
2017-02-10T01:56:29.362Z,-2.1
2017-02-10T01:57:09.877Z,-2.02
2017-02-10T01:57:50.332Z,-2.07
2017-02-10T01:58:30.781Z,-2.08
2017-02-10T01:59:11.281Z,-2.13
2017-02-10T01:59:51.761Z,-2.07
2017-02-10T02:00:32.244Z,-2.1
2017-02-10T02:01:12.725Z,-2.1
2017-02-10T02:01:53.247Z,-2.04
2017-02-10T02:02:33.741Z,-2.1
2017-02-10T02:03:14.167Z,-2.1
2017-02-10T02:03:54.654Z,-2.12
2017-02-10T02:04:35.108Z,-2.08
2017-02-10T02:05:15.597Z,-2.1
2017-02-10T02:05:56.143Z,-2.12
2017-02-10T02:06:36.667Z,-2.12
2017-02-10T02:07:17.151Z,-2.08
2017-02-10T02:07:57.580Z,-2.12
2017-02-10T02:08:38.104Z,-2.08
2017-02-10T02:09:18.603Z,-2.13
2017-02-10T02:09:59.042Z,-2.21
2017-02-10T02:10:39.538Z,-2.18
2017-02-10T02:11:20.011Z,-2.21
2017-02-10T02:12:00.505Z,-2.18
2017-02-10T02:12:40.969Z,-2.23
2017-02-10T02:13:21.407Z,-2.23
2017-02-10T02:14:01.928Z,-2.23
2017-02-10T02:14:42.389Z,-2.21
2017-02-10T02:15:22.889Z,-2.1
2017-02-10T02:16:03.483Z,-2.1
2017-02-10T02:16:43.986Z,-2.23
2017-02-10T02:17:24.445Z,-2.18
2017-02-10T02:18:04.896Z,-2.21
2017-02-10T02:18:45.424Z,-2.21
2017-02-10T02:19:25.889Z,-2.15
2017-02-10T02:20:06.382Z,-2.18
2017-02-10T02:20:46.871Z,-2.22
2017-02-10T02:21:27.358Z,-2.21
2017-02-10T02:22:07.854Z,-2.13
2017-02-10T02:22:48.295Z,-2.13
2017-02-10T02:23:28.775Z,-2.12
2017-02-10T02:24:09.235Z,-2.1
2017-02-10T02:24:49.822Z,-2.08
2017-02-10T02:25:30.305Z,-2.12
2017-02-10T02:26:10.746Z,-2.13
2017-02-10T02:26:51.244Z,-2.12
2017-02-10T02:27:31.747Z,-2.18
2017-02-10T02:28:12.268Z,-2.08
2017-02-10T02:28:52.730Z,-2.16
2017-02-10T02:29:33.191Z,-2.12
2017-02-10T02:30:13.682Z,-2.15
2017-02-10T02:30:54.178Z,-2.13
2017-02-10T02:31:34.699Z,-2.12
2017-02-10T02:32:15.140Z,-2.05
2017-02-10T02:32:55.586Z,-2.15
2017-02-10T02:33:36.059Z,-2.05
2017-02-10T02:34:16.550Z,-2.07
2017-02-10T02:34:57.058Z,-2.07
2017-02-10T02:35:37.596Z,-2.05
2017-02-10T02:36:18.065Z,-2.01
2017-02-10T02:36:58.591Z,-2.08
2017-02-10T02:37:39.034Z,-2.08
2017-02-10T02:38:19.521Z,-2.08
2017-02-10T02:39:00.006Z,-2.01
2017-02-10T02:39:40.410Z,-2
2017-02-10T02:40:20.860Z,-2.04
2017-02-10T02:41:01.364Z,-2.05
2017-02-10T02:41:41.817Z,-2.01
2017-02-10T02:43:46.547Z,-2.05
2017-02-10T02:46:08.984Z,-2.05
2017-02-10T02:46:57.359Z,-1.98
2017-02-10T02:47:46.208Z,-2.05
2017-02-10T02:48:35.005Z,-2.08
2017-02-10T02:49:23.767Z,-2.08
2017-02-10T02:50:12.522Z,-2.1
2017-02-10T02:51:01.283Z,-2.08
2017-02-10T02:51:49.927Z,-2.04
2017-02-10T02:52:38.645Z,-2.04
2017-02-10T02:53:27.105Z,-2.1
2017-02-10T02:54:15.714Z,-2.04
2017-02-10T02:55:04.795Z,-2.05
2017-02-10T02:55:53.137Z,-2.05
2017-02-10T02:56:41.589Z,-2.04
2017-02-10T02:57:30.794Z,-2.05
2017-02-10T02:58:19.457Z,-2.05
2017-02-10T02:59:08.458Z,-2.07
2017-02-10T02:59:56.682Z,-2
2017-02-10T03:00:45.448Z,-2
2017-02-10T03:01:34.526Z,-2.05
2017-02-10T03:02:22.966Z,-2.01
2017-02-10T03:03:11.949Z,-1.97
2017-02-10T03:04:00.188Z,-2.05
2017-02-10T03:04:49.681Z,-1.92
2017-02-10T03:05:39.527Z,-2
2017-02-10T03:06:28.059Z,-2.01
2017-02-10T03:07:16.640Z,-1.95
2017-02-10T03:08:05.272Z,-1.95
2017-02-10T03:08:54.984Z,-1.95
2017-02-10T03:09:42.754Z,-2.01
2017-02-10T03:10:31.906Z,-1.94
2017-02-10T03:11:20.481Z,-2.02
2017-02-10T03:12:09.456Z,-1.97
2017-02-10T03:12:58.113Z,-1.98
2017-02-10T03:13:46.853Z,-1.9
2017-02-10T03:14:35.530Z,-1.9
2017-02-10T03:15:24.522Z,-1.97
2017-02-10T03:16:12.903Z,-1.9
2017-02-10T03:17:01.509Z,-1.87
2017-02-10T03:17:50.483Z,-1.97
2017-02-10T03:18:39.335Z,-2.01
2017-02-10T03:19:27.997Z,-1.97
2017-02-10T03:20:16.493Z,-1.97
2017-02-10T03:21:05.352Z,-1.94
2017-02-10T03:21:54.198Z,-1.9
2017-02-10T03:22:42.631Z,-1.9
2017-02-10T03:23:31.460Z,-1.9
2017-02-10T03:24:20.368Z,-1.89
2017-02-10T03:25:08.412Z,-1.84
2017-02-10T03:25:57.291Z,-1.94
2017-02-10T03:26:46.307Z,-1.9
2017-02-10T03:27:34.744Z,-1.95
2017-02-10T03:28:23.416Z,-1.94
2017-02-10T03:29:12.039Z,-1.87
2017-02-10T03:30:01.134Z,-1.87
2017-02-10T03:30:50.153Z,-1.84
2017-02-10T03:31:38.915Z,-1.92
2017-02-10T03:32:26.900Z,-1.87
2017-02-10T03:33:16.115Z,-1.9
2017-02-10T03:34:04.891Z,-1.87
2017-02-10T03:34:53.728Z,-1.92
2017-02-10T03:35:42.188Z,-1.84
2017-02-10T03:36:30.616Z,-1.87
2017-02-10T03:37:19.320Z,-1.9
2017-02-10T03:38:07.614Z,-1.9
2017-02-10T03:38:56.865Z,-1.94
2017-02-10T03:39:45.326Z,-1.92
2017-02-10T03:40:33.915Z,-1.94
2017-02-10T03:41:23.854Z,-1.9
2017-02-10T03:42:12.166Z,-1.92
2017-02-10T03:43:01.384Z,-1.9
2017-02-10T03:43:49.430Z,-1.9
2017-02-10T03:44:38.592Z,-1.89
2017-02-10T03:45:26.978Z,-1.84
2017-02-10T03:46:15.747Z,-1.92
2017-02-10T03:47:04.537Z,-1.9
2017-02-10T03:47:53.527Z,-1.8
2017-02-10T03:48:42.160Z,-1.77
2017-02-10T03:49:30.646Z,-1.76
2017-02-10T03:50:19.473Z,-1.83
2017-02-10T03:51:08.040Z,-1.82
2017-02-10T03:51:56.637Z,-1.79
2017-02-10T03:52:45.930Z,-1.74
2017-02-10T03:53:34.259Z,-1.69
2017-02-10T03:54:23.423Z,-1.79
2017-02-10T03:55:11.965Z,-1.74
2017-02-10T03:56:00.498Z,-1.64
2017-02-10T03:56:49.126Z,-1.66
2017-02-10T03:57:37.999Z,-1.71
2017-02-10T03:58:26.570Z,-1.8
2017-02-10T03:59:15.564Z,-1.83
2017-02-10T04:00:04.348Z,-1.77
2017-02-10T04:00:52.666Z,-1.68
2017-02-10T04:01:41.486Z,-1.66
2017-02-10T04:02:29.762Z,-1.77
2017-02-10T04:03:18.972Z,-1.72
2017-02-10T04:04:07.403Z,-1.82
2017-02-10T04:04:56.179Z,-1.82
2017-02-10T04:05:44.966Z,-1.77
2017-02-10T04:06:33.503Z,-1.71
2017-02-10T04:07:22.491Z,-1.71
2017-02-10T04:08:11.437Z,-1.74
2017-02-10T04:09:00.072Z,-1.71
2017-02-10T04:09:48.472Z,-1.82
2017-02-10T04:10:37.016Z,-1.83
2017-02-10T04:11:25.989Z,-1.76
2017-02-10T04:12:14.440Z,-1.69
2017-02-10T04:13:03.031Z,-1.65
2017-02-10T04:13:51.823Z,-1.71
2017-02-10T04:14:40.530Z,-1.69
2017-02-10T04:15:29.060Z,-1.72
2017-02-10T04:16:17.655Z,-1.72
2017-02-10T04:17:06.484Z,-1.72
2017-02-10T04:17:55.454Z,-1.71
2017-02-10T04:18:43.776Z,-1.68
2017-02-10T04:19:32.498Z,-1.74
2017-02-10T04:20:20.968Z,-1.69
2017-02-10T04:21:10.129Z,-1.64
2017-02-10T04:22:00.128Z,-1.71
2017-02-10T04:22:48.639Z,-1.72
2017-02-10T04:23:37.111Z,-1.71
2017-02-10T04:24:25.542Z,-1.68
2017-02-10T04:25:14.036Z,-1.68
2017-02-10T04:26:02.905Z,-1.66
2017-02-10T04:26:52.441Z,-1.68
2017-02-10T04:27:40.532Z,-1.74
2017-02-10T04:28:29.462Z,-1.72
2017-02-10T04:29:18.518Z,-1.71
2017-02-10T04:30:06.633Z,-1.61
2017-02-10T04:30:55.398Z,-1.72
2017-02-10T04:31:44.372Z,-1.68
2017-02-10T04:32:32.963Z,-1.62
2017-02-10T04:33:21.692Z,-1.71
2017-02-10T04:34:10.654Z,-1.71
2017-02-10T04:34:59.453Z,-1.76
2017-02-10T04:35:48.482Z,-1.68
2017-02-10T04:36:36.196Z,-1.72
2017-02-10T04:37:25.377Z,-1.65
2017-02-10T04:38:13.502Z,-1.72
2017-02-10T04:39:02.788Z,-1.69
2017-02-10T04:39:50.704Z,-1.72
2017-02-10T04:40:39.598Z,-1.69
2017-02-10T04:41:28.197Z,-1.62
2017-02-10T04:42:16.933Z,-1.68
2017-02-10T04:43:05.470Z,-1.71
2017-02-10T04:43:54.088Z,-1.66
2017-02-10T04:44:42.476Z,-1.66
2017-02-10T04:45:31.910Z,-1.64
2017-02-10T04:46:20.512Z,-1.64
2017-02-10T04:48:41.931Z,-1.74
2017-02-10T04:49:30.272Z,-1.71
2017-02-10T04:50:18.518Z,-1.68
2017-02-10T04:51:07.239Z,-1.8
2017-02-10T04:51:54.551Z,-1.65
2017-02-10T04:52:43.441Z,-1.68
2017-02-10T04:53:32.352Z,-1.71
2017-02-10T04:54:20.943Z,-1.71
2017-02-10T04:55:09.664Z,-1.66
2017-02-10T04:55:58.732Z,-1.8
2017-02-10T04:56:47.261Z,-1.83
2017-02-10T04:57:36.269Z,-1.69
2017-02-10T04:58:24.910Z,-1.64
2017-02-10T04:59:13.362Z,-1.68
2017-02-10T05:00:02.476Z,-1.79
2017-02-10T05:00:51.319Z,-1.66
2017-02-10T05:01:40.748Z,-1.69
2017-02-10T05:02:28.918Z,-1.77
2017-02-10T05:03:17.895Z,-1.72
2017-02-10T05:04:06.781Z,-1.79
2017-02-10T05:04:55.659Z,-1.83
2017-02-10T05:05:44.223Z,-1.8
2017-02-10T05:06:32.884Z,-1.77
2017-02-10T05:07:21.277Z,-1.82
2017-02-10T05:08:09.896Z,-1.72
2017-02-10T05:08:58.620Z,-1.65
2017-02-10T05:09:47.363Z,-1.74
2017-02-10T05:10:36.257Z,-1.74
2017-02-10T05:11:24.730Z,-1.68
2017-02-10T05:12:13.361Z,-1.77
2017-02-10T05:13:01.823Z,-1.72
2017-02-10T05:13:50.808Z,-1.79
2017-02-10T05:14:39.721Z,-1.8
2017-02-10T05:15:27.866Z,-1.77
2017-02-10T05:16:16.786Z,-1.76
2017-02-10T05:17:05.876Z,-1.77
2017-02-10T05:17:54.501Z,-1.82
2017-02-10T05:18:42.929Z,-1.82
2017-02-10T05:19:31.780Z,-1.82
2017-02-10T05:20:20.435Z,-1.82
2017-02-10T05:21:09.314Z,-1.89
2017-02-10T05:21:58.702Z,-1.84
2017-02-10T05:22:47.290Z,-1.86
2017-02-10T05:23:36.237Z,-1.84
2017-02-10T05:24:24.912Z,-1.86
2017-02-10T05:25:14.109Z,-1.9
2017-02-10T05:26:02.514Z,-1.87
2017-02-10T05:26:51.626Z,-1.87
2017-02-10T05:27:40.088Z,-1.82
2017-02-10T05:28:28.772Z,-1.87
2017-02-10T05:29:17.617Z,-1.86
2017-02-10T05:30:05.952Z,-1.9
2017-02-10T05:30:54.702Z,-1.97
2017-02-10T05:31:43.430Z,-1.9
2017-02-10T05:32:32.835Z,-2.01
2017-02-10T05:33:20.780Z,-2.07
2017-02-10T05:34:09.416Z,-2.07
2017-02-10T05:34:58.496Z,-2.12
2017-02-10T05:35:47.251Z,-2.18
2017-02-10T05:36:36.221Z,-2.21
2017-02-10T05:37:24.431Z,-2.23
2017-02-10T05:38:13.338Z,-2.3
2017-02-10T05:39:01.719Z,-2.26
2017-02-10T05:39:51.126Z,-2.23
2017-02-10T05:40:39.475Z,-2.37
2017-02-10T05:41:28.292Z,-2.4
2017-02-10T05:42:17.226Z,-2.47
2017-02-10T05:43:05.445Z,-2.44
2017-02-10T05:43:54.345Z,-2.47
2017-02-10T05:44:43.209Z,-2.44
2017-02-10T05:45:31.608Z,-2.58
2017-02-10T05:46:20.014Z,-2.65
2017-02-10T05:47:09.214Z,-2.59
2017-02-10T05:47:57.759Z,-2.59
2017-02-10T05:48:46.220Z,-2.63
2017-02-10T05:49:34.752Z,-2.62
2017-02-10T05:50:23.803Z,-2.7
2017-02-10T05:51:12.271Z,-2.71
2017-02-10T05:52:01.247Z,-2.71
2017-02-10T05:52:49.592Z,-2.71
2017-02-10T05:53:38.597Z,-2.65
2017-02-10T05:54:27.170Z,-2.65
2017-02-10T05:55:16.402Z,-2.63
2017-02-10T05:56:04.593Z,-2.6
2017-02-10T05:56:53.115Z,-2.55
2017-02-10T05:57:42.103Z,-2.59
2017-02-10T05:58:30.436Z,-2.62
2017-02-10T05:59:19.119Z,-2.53
2017-02-10T06:00:08.083Z,-2.53
2017-02-10T06:00:56.939Z,-2.55
2017-02-10T06:01:45.281Z,-2.47
2017-02-10T06:02:34.114Z,-2.45
2017-02-10T06:03:22.438Z,-2.53
2017-02-10T06:04:11.280Z,-2.4
2017-02-10T06:05:00.406Z,-2.5
2017-02-10T06:05:49.200Z,-2.48
2017-02-10T06:06:37.930Z,-2.44
2017-02-10T06:07:26.291Z,-2.52
2017-02-10T06:08:15.096Z,-2.53
2017-02-10T06:09:03.414Z,-2.37
2017-02-10T06:09:52.289Z,-2.47
2017-02-10T06:10:41.227Z,-2.48
2017-02-10T06:11:30.217Z,-2.4
2017-02-10T06:12:18.758Z,-2.4
2017-02-10T06:13:07.667Z,-2.4
2017-02-10T06:13:55.862Z,-2.4
2017-02-10T06:14:44.878Z,-2.38
2017-02-10T06:15:33.502Z,-2.38
2017-02-10T06:16:22.182Z,-2.41
2017-02-10T06:17:10.771Z,-2.44
2017-02-10T06:17:59.608Z,-2.38
2017-02-10T06:18:48.110Z,-2.44
2017-02-10T06:19:36.727Z,-2.37
2017-02-10T06:20:25.596Z,-2.28
2017-02-10T06:21:13.967Z,-2.28
2017-02-10T06:22:03.390Z,-2.28
2017-02-10T06:22:52.089Z,-2.34
2017-02-10T06:23:40.726Z,-2.28
2017-02-10T06:24:29.537Z,-2.3
2017-02-10T06:25:18.329Z,-2.28
2017-02-10T06:26:07.242Z,-2.26
2017-02-10T06:26:55.567Z,-2.26
2017-02-10T06:27:44.710Z,-2.26
2017-02-10T06:28:33.235Z,-2.25
2017-02-10T06:29:21.618Z,-2.25
2017-02-10T06:30:10.630Z,-2.3
2017-02-10T06:30:58.876Z,-2.32
2017-02-10T06:31:48.202Z,-2.25
2017-02-10T06:32:37.100Z,-2.21
2017-02-10T06:33:25.232Z,-2.25
2017-02-10T06:34:14.138Z,-2.28
2017-02-10T06:35:02.752Z,-2.3
2017-02-10T06:35:51.547Z,-2.26
2017-02-10T06:36:39.931Z,-2.22
2017-02-10T06:37:29.014Z,-2.3
2017-02-10T06:38:17.747Z,-2.28
2017-02-10T06:39:06.333Z,-2.26
2017-02-10T06:39:54.888Z,-2.26
2017-02-10T06:40:44.238Z,-2.23
2017-02-10T06:41:33.418Z,-2.26
2017-02-10T06:42:20.957Z,-2.26
2017-02-10T06:43:10.093Z,-2.21
2017-02-10T06:43:58.439Z,-2.22
2017-02-10T06:44:47.186Z,-2.25
2017-02-10T06:45:35.818Z,-2.21
2017-02-10T06:46:24.475Z,-2.19
2017-02-10T06:47:13.284Z,-2.18
2017-02-10T06:47:59.533Z,-2.26
2017-02-10T06:48:39.978Z,-2.18
2017-02-10T06:49:20.428Z,-2.19
2017-02-10T06:50:00.924Z,-2.13
2017-02-10T06:50:41.460Z,-2.16
2017-02-10T06:51:21.893Z,-2.21
2017-02-10T06:52:02.437Z,-2.19
2017-02-10T06:52:42.917Z,-2.16
2017-02-10T06:53:23.345Z,-2.15
2017-02-10T06:54:03.887Z,-2.15
2017-02-10T06:54:44.330Z,-2.18
2017-02-10T06:55:24.797Z,-2.18
2017-02-10T06:56:05.281Z,-2.19
2017-02-10T06:56:45.776Z,-2.15
2017-02-10T06:57:26.235Z,-2.16
2017-02-10T06:58:06.711Z,-2.1
2017-02-10T06:58:47.228Z,-2.12
2017-02-10T06:59:27.659Z,-2.05
2017-02-10T07:00:08.143Z,-2.08
2017-02-10T07:00:48.628Z,-2.01
2017-02-10T07:01:29.128Z,-2.07
2017-02-10T07:02:09.604Z,-2.05
2017-02-10T07:02:50.083Z,-2.01
2017-02-10T07:03:30.594Z,-2.07
2017-02-10T07:04:11.041Z,-2.01
2017-02-10T07:04:51.656Z,-2.02
2017-02-10T07:05:32.130Z,-2.05
2017-02-10T07:06:12.647Z,-1.9
2017-02-10T07:06:53.112Z,-1.94
2017-02-10T07:07:33.653Z,-1.94
2017-02-10T07:08:14.098Z,-1.89
2017-02-10T07:08:54.564Z,-1.98
2017-02-10T07:09:35.003Z,-2.02
2017-02-10T07:10:15.560Z,-1.87
2017-02-10T07:10:56.046Z,-1.94
2017-02-10T07:11:36.581Z,-1.92
2017-02-10T07:12:17.076Z,-1.9
2017-02-10T07:12:57.502Z,-1.89
2017-02-10T07:13:37.974Z,-1.9
2017-02-10T07:14:18.509Z,-1.84
2017-02-10T07:14:59.061Z,-1.84
2017-02-10T07:15:39.460Z,-1.9
2017-02-10T07:16:20.039Z,-1.82
2017-02-10T07:17:01.391Z,-1.79
2017-02-10T07:17:41.916Z,-1.82
2017-02-10T07:18:22.388Z,-1.76
2017-02-10T07:19:02.837Z,-1.79
2017-02-10T07:19:43.374Z,-1.74
2017-02-10T07:20:23.953Z,-1.83
2017-02-10T07:21:04.487Z,-1.76
2017-02-10T07:21:47.823Z,-1.77
2017-02-10T07:22:29.228Z,-1.8
2017-02-10T07:23:09.693Z,-1.76
2017-02-10T07:23:52.640Z,-1.71
2017-02-10T07:24:33.129Z,-1.71
2017-02-10T07:25:13.614Z,-1.66
2017-02-10T07:25:54.104Z,-1.74
2017-02-10T07:26:38.165Z,-1.79
2017-02-10T07:27:21.167Z,-1.69
2017-02-10T07:28:01.760Z,-1.72
2017-02-10T07:28:42.835Z,-1.68
2017-02-10T07:29:23.325Z,-1.72
2017-02-10T07:30:03.903Z,-1.68
2017-02-10T07:30:45.330Z,-1.69
2017-02-10T07:31:25.825Z,-1.69
2017-02-10T07:32:07.191Z,-1.64
2017-02-10T07:32:48.172Z,-1.68
2017-02-10T07:33:28.824Z,-1.68
2017-02-10T07:34:10.069Z,-1.69
2017-02-10T07:34:50.576Z,-1.66
2017-02-10T07:35:31.748Z,-1.62
2017-02-10T07:36:12.262Z,-1.71
2017-02-10T07:36:52.714Z,-1.64
2017-02-10T07:37:33.850Z,-1.59
2017-02-10T07:38:14.335Z,-1.64
2017-02-10T07:38:54.872Z,-1.62
2017-02-10T07:39:35.383Z,-1.51
2017-02-10T07:40:15.912Z,-1.58
2017-02-10T07:40:56.407Z,-1.5
2017-02-10T07:41:36.871Z,-1.51
2017-02-10T07:42:17.467Z,-1.51
2017-02-10T07:42:57.936Z,-1.5
2017-02-10T07:43:38.445Z,-1.54
2017-02-10T07:44:18.936Z,-1.62
2017-02-10T07:45:00.091Z,-1.5
2017-02-10T07:45:40.645Z,-1.51
2017-02-10T07:46:21.177Z,-1.51
2017-02-10T07:47:01.727Z,-1.53
2017-02-10T07:47:52.972Z,-1.47
2017-02-10T07:48:33.617Z,-1.47
2017-02-10T07:49:17.594Z,-1.56
2017-02-10T07:49:58.023Z,-1.47
2017-02-10T07:50:40.452Z,-1.56
2017-02-10T07:51:20.931Z,-1.5
2017-02-10T07:52:01.390Z,-1.47
2017-02-10T07:52:44.583Z,-1.54
2017-02-10T07:53:25.061Z,-1.46
2017-02-10T07:54:05.523Z,-1.48
2017-02-10T07:54:45.980Z,-1.53
2017-02-10T07:55:28.053Z,-1.33
2017-02-10T07:56:08.542Z,-1.4
2017-02-10T07:56:53.556Z,-1.41
2017-02-10T07:57:39.563Z,-1.37
2017-02-10T07:58:21.747Z,-1.38
2017-02-10T07:59:02.446Z,-1.37
2017-02-10T07:59:43.861Z,-1.43
2017-02-10T08:00:24.488Z,-1.32
2017-02-10T08:01:04.927Z,-1.4
2017-02-10T08:01:45.506Z,-1.4
2017-02-10T08:02:25.945Z,-1.29
2017-02-10T08:03:06.737Z,-1.4
2017-02-10T08:03:48.828Z,-1.38
2017-02-10T08:04:29.313Z,-1.35
2017-02-10T08:05:10.638Z,-1.32
2017-02-10T08:05:51.201Z,-1.38
2017-02-10T08:06:33.531Z,-1.3
2017-02-10T08:07:15.758Z,-1.29
2017-02-10T08:07:56.479Z,-1.26
2017-02-10T08:08:36.928Z,-1.27
2017-02-10T08:09:17.413Z,-1.3
2017-02-10T08:09:57.954Z,-1.29
2017-02-10T08:10:38.394Z,-1.33
2017-02-10T08:11:20.810Z,-1.32
2017-02-10T08:12:01.290Z,-1.32
2017-02-10T08:12:41.788Z,-1.26
2017-02-10T08:13:26.593Z,-1.35
2017-02-10T08:14:07.100Z,-1.3
2017-02-10T08:14:47.563Z,-1.38
2017-02-10T08:15:28.014Z,-1.41
2017-02-10T08:16:08.519Z,-1.3
2017-02-10T08:16:51.577Z,-1.38
2017-02-10T08:17:32.003Z,-1.32
2017-02-10T08:18:12.484Z,-1.37
2017-02-10T08:18:53.002Z,-1.29
2017-02-10T08:19:33.622Z,-1.3
2017-02-10T08:20:14.119Z,-1.32
2017-02-10T08:20:56.529Z,-1.27
2017-02-10T08:21:37.648Z,-1.3
2017-02-10T08:22:18.140Z,-1.33
2017-02-10T08:22:58.628Z,-1.23
2017-02-10T08:23:39.170Z,-1.14
2017-02-10T08:24:19.663Z,-1.22
2017-02-10T08:25:00.167Z,-1.15
2017-02-10T08:25:40.690Z,-1.17
2017-02-10T08:26:21.227Z,-1.19
2017-02-10T08:27:01.722Z,-1.3
2017-02-10T08:27:42.212Z,-1.19
2017-02-10T08:28:22.735Z,-1.2
2017-02-10T08:29:03.210Z,-1.25
2017-02-10T08:29:44.802Z,-1.23
2017-02-10T08:30:31.679Z,-1.23
2017-02-10T08:31:14.259Z,-1.23
2017-02-10T08:31:57.827Z,-1.22
2017-02-10T08:32:38.636Z,-1.23
2017-02-10T08:33:20.290Z,-1.14
2017-02-10T08:34:08.632Z,-1.19
2017-02-10T08:34:53.546Z,-1.12
2017-02-10T08:35:35.782Z,-1.14
2017-02-10T08:36:16.257Z,-1.11
2017-02-10T08:36:56.721Z,-1.11
2017-02-10T08:37:37.229Z,-1.11
2017-02-10T08:38:17.771Z,-1.08
2017-02-10T08:38:58.300Z,-1.05
2017-02-10T08:39:38.753Z,-1.04
2017-02-10T08:40:19.219Z,-1.07
2017-02-10T08:41:00.722Z,-0.94
2017-02-10T08:41:41.257Z,-0.99
2017-02-10T08:42:21.742Z,-1.02
2017-02-10T08:43:02.227Z,-1.04
2017-02-10T08:43:42.742Z,-1.01
2017-02-10T08:44:23.351Z,-1.04
2017-02-10T08:45:04.217Z,-1.02
2017-02-10T08:45:44.846Z,-1.11
2017-02-10T08:46:31.567Z,-1.02
2017-02-10T08:47:14.085Z,-1.15
2017-02-10T08:47:57.348Z,-1.07
2017-02-10T08:48:45.811Z,-1.07
2017-02-10T08:49:26.361Z,-0.94
2017-02-10T08:50:06.862Z,-0.93
2017-02-10T08:50:50.383Z,-0.96
2017-02-10T08:51:32.722Z,-0.91
2017-02-10T08:52:13.220Z,-0.9
2017-02-10T08:52:53.707Z,-0.86
2017-02-10T08:53:34.197Z,-0.85
2017-02-10T08:54:14.686Z,-0.9
2017-02-10T08:54:55.210Z,-0.78
2017-02-10T08:55:35.651Z,-0.85
2017-02-10T08:56:16.142Z,-0.85
2017-02-10T08:56:56.831Z,-0.85
2017-02-10T08:57:37.363Z,-0.86
2017-02-10T08:58:19.646Z,-0.83
2017-02-10T08:59:00.143Z,-0.86
2017-02-10T08:59:42.595Z,-0.9
2017-02-10T09:00:23.096Z,-0.78
2017-02-10T09:01:04.095Z,-0.85
2017-02-10T09:01:45.520Z,-0.89
2017-02-10T09:02:28.111Z,-0.8
2017-02-10T09:03:10.572Z,-0.91
2017-02-10T09:03:51.052Z,-0.85
2017-02-10T09:04:34.049Z,-0.8
2017-02-10T09:05:14.625Z,-0.94
2017-02-10T09:05:56.345Z,-0.9
2017-02-10T09:06:46.587Z,-0.85
2017-02-10T09:07:27.079Z,-0.83
2017-02-10T09:08:14.069Z,-0.85
2017-02-10T09:09:00.098Z,-0.86
2017-02-10T09:09:40.982Z,-0.8
2017-02-10T09:10:22.165Z,-0.89
2017-02-10T09:11:13.109Z,-0.93
2017-02-10T09:11:55.329Z,-0.86
2017-02-10T09:12:43.552Z,-0.86
2017-02-10T09:13:24.814Z,-0.89
2017-02-10T09:14:08.848Z,-0.85
2017-02-10T09:14:54.075Z,-0.71
2017-02-10T09:15:35.525Z,-0.85
2017-02-10T09:16:20.622Z,-0.77
2017-02-10T09:17:03.709Z,-0.85
2017-02-10T09:17:45.832Z,-0.78
2017-02-10T09:18:26.417Z,-0.75
2017-02-10T09:19:06.947Z,-0.74
2017-02-10T09:19:52.644Z,-0.78
2017-02-10T09:20:33.117Z,-0.74
2017-02-10T09:21:13.641Z,-0.78
2017-02-10T09:21:54.457Z,-0.72
2017-02-10T09:22:34.967Z,-0.71
2017-02-10T09:23:15.533Z,-0.8
2017-02-10T09:23:58.533Z,-0.7
2017-02-10T09:24:40.038Z,-0.72
2017-02-10T09:25:20.484Z,-0.75
2017-02-10T09:26:04.027Z,-0.8
2017-02-10T09:26:44.551Z,-0.7
2017-02-10T09:27:30.880Z,-0.78
2017-02-10T09:28:14.354Z,-0.67
2017-02-10T09:29:05.559Z,-0.67
2017-02-10T09:29:47.568Z,-0.7
2017-02-10T09:30:30.728Z,-0.64
2017-02-10T09:31:15.858Z,-0.68
2017-02-10T09:31:59.104Z,-0.61
2017-02-10T09:32:43.104Z,-0.68
2017-02-10T09:33:29.072Z,-0.75